createdAt,value
2019-01-30T00:00:37.971Z,984.04
2019-01-30T00:01:37.934Z,984.02
2019-01-30T00:02:37.959Z,984.04
2019-01-30T00:03:37.911Z,983.92
2019-01-30T00:04:37.916Z,983.96
2019-01-30T00:05:37.916Z,983.90
2019-01-30T00:06:37.941Z,983.90
2019-01-30T00:07:37.913Z,983.86
2019-01-30T00:08:37.884Z,983.82
2019-01-30T00:09:37.863Z,983.82
2019-01-30T00:10:37.862Z,983.81
2019-01-30T00:11:37.850Z,983.82
2019-01-30T00:12:37.861Z,983.79
2019-01-30T00:13:37.847Z,983.77
2019-01-30T00:14:37.795Z,983.77
2019-01-30T00:15:37.787Z,983.72
2019-01-30T00:16:37.818Z,983.70
2019-01-30T00:17:37.833Z,983.71
2019-01-30T00:18:37.833Z,983.69
2019-01-30T00:19:37.811Z,983.70
2019-01-30T00:20:37.807Z,983.67
2019-01-30T00:21:37.811Z,983.70
2019-01-30T00:22:37.786Z,983.70
2019-01-30T00:23:37.731Z,983.64
2019-01-30T00:24:37.746Z,983.67
2019-01-30T00:25:37.684Z,983.65
2019-01-30T00:26:37.842Z,983.60
2019-01-30T00:27:37.715Z,983.59
2019-01-30T00:28:37.702Z,983.56
2019-01-30T00:29:37.676Z,983.57
2019-01-30T00:30:37.657Z,983.60
2019-01-30T00:31:37.651Z,983.52
2019-01-30T00:32:37.615Z,983.47
2019-01-30T00:33:37.611Z,983.44
2019-01-30T00:34:37.605Z,983.44
2019-01-30T00:35:37.571Z,983.44
2019-01-30T00:36:37.605Z,983.40
2019-01-30T00:37:37.552Z,983.40
2019-01-30T00:38:37.555Z,983.37
2019-01-30T00:39:37.549Z,983.36
2019-01-30T00:40:37.559Z,983.35
2019-01-30T00:41:37.533Z,983.37
2019-01-30T00:42:37.495Z,983.36
2019-01-30T00:43:37.502Z,983.34
2019-01-30T00:44:37.517Z,983.33
2019-01-30T00:45:37.539Z,983.36
2019-01-30T00:46:37.496Z,983.31
2019-01-30T00:47:37.460Z,983.25
2019-01-30T00:48:37.429Z,983.27
2019-01-30T00:49:37.410Z,983.24
2019-01-30T00:50:37.554Z,983.22
2019-01-30T00:51:37.430Z,983.25
2019-01-30T00:52:37.392Z,983.28
2019-01-30T00:53:37.393Z,983.34
2019-01-30T00:54:37.375Z,983.28
2019-01-30T00:55:37.362Z,983.21
2019-01-30T00:56:37.387Z,983.22
2019-01-30T00:57:37.324Z,983.23
2019-01-30T00:58:37.349Z,983.24
2019-01-30T00:59:37.317Z,983.27
2019-01-30T01:00:37.292Z,983.22
2019-01-30T01:01:37.311Z,983.18
2019-01-30T01:02:37.390Z,983.18
2019-01-30T01:03:37.283Z,983.20
2019-01-30T01:04:37.276Z,983.20
2019-01-30T01:05:37.260Z,983.15
2019-01-30T01:06:41.854Z,983.14
2019-01-30T01:07:37.215Z,983.12
2019-01-30T01:08:37.201Z,983.11
2019-01-30T01:09:37.232Z,983.10
2019-01-30T01:10:37.219Z,983.08
2019-01-30T01:11:37.214Z,983.10
2019-01-30T01:12:37.171Z,983.10
2019-01-30T01:13:37.177Z,983.09
2019-01-30T01:14:37.244Z,983.08
2019-01-30T01:15:37.219Z,983.08
2019-01-30T01:16:37.155Z,983.05
2019-01-30T01:17:37.204Z,983.01
2019-01-30T01:18:37.184Z,983.03
2019-01-30T01:19:37.140Z,983.01
2019-01-30T01:20:37.137Z,983.03
2019-01-30T01:21:37.214Z,983.01
2019-01-30T01:22:37.086Z,983.01
2019-01-30T01:23:37.092Z,982.95
2019-01-30T01:24:37.052Z,982.99
2019-01-30T01:25:37.045Z,983.00
2019-01-30T01:26:37.114Z,982.98
2019-01-30T01:27:37.017Z,982.95
2019-01-30T01:28:37.372Z,982.94
2019-01-30T01:29:36.981Z,982.92
2019-01-30T01:30:36.964Z,982.91
2019-01-30T01:31:36.995Z,982.90
2019-01-30T01:32:36.979Z,982.87
2019-01-30T01:33:36.959Z,982.86
2019-01-30T01:34:36.935Z,982.84
2019-01-30T01:35:37.046Z,982.81
2019-01-30T01:36:36.959Z,982.79
2019-01-30T01:37:36.893Z,982.73
2019-01-30T01:38:36.883Z,982.79
2019-01-30T01:39:36.860Z,982.78
2019-01-30T01:40:36.882Z,982.71
2019-01-30T01:41:36.870Z,982.73
2019-01-30T01:42:36.881Z,982.71
2019-01-30T01:43:36.819Z,982.66
2019-01-30T01:44:36.849Z,982.65
2019-01-30T01:45:36.924Z,982.65
2019-01-30T01:46:36.793Z,982.65
2019-01-30T01:47:36.844Z,982.55
2019-01-30T01:48:36.804Z,982.58
2019-01-30T01:49:36.764Z,982.56
2019-01-30T01:50:36.773Z,982.60
2019-01-30T01:51:36.757Z,982.54
2019-01-30T01:52:36.795Z,982.50
2019-01-30T01:53:36.741Z,982.47
2019-01-30T01:54:36.724Z,982.46
2019-01-30T01:55:36.722Z,982.45
2019-01-30T01:56:36.741Z,982.42
2019-01-30T01:57:36.692Z,982.42
2019-01-30T01:58:36.686Z,982.34
2019-01-30T01:59:36.644Z,982.35
2019-01-30T02:00:36.719Z,982.31
2019-01-30T02:01:36.627Z,982.28
2019-01-30T02:02:36.674Z,982.34
2019-01-30T02:03:36.597Z,982.28
2019-01-30T02:04:36.611Z,982.25
2019-01-30T02:05:36.585Z,982.26
2019-01-30T02:06:36.588Z,982.26
2019-01-30T02:07:36.600Z,982.22
2019-01-30T02:08:36.563Z,982.16
2019-01-30T02:09:36.565Z,982.16
2019-01-30T02:10:36.546Z,982.13
2019-01-30T02:11:36.546Z,982.14
2019-01-30T02:12:36.551Z,982.12
2019-01-30T02:13:36.518Z,982.05
2019-01-30T02:14:36.517Z,982.04
2019-01-30T02:15:36.498Z,982.05
2019-01-30T02:16:36.473Z,982.03
2019-01-30T02:17:36.552Z,981.99
2019-01-30T02:18:36.494Z,981.98
2019-01-30T02:19:36.483Z,981.95
2019-01-30T02:20:36.469Z,981.92
2019-01-30T02:21:36.458Z,981.94
2019-01-30T02:22:36.515Z,981.91
2019-01-30T02:23:36.433Z,981.89
2019-01-30T02:24:36.423Z,981.86
2019-01-30T02:25:36.397Z,981.82
2019-01-30T02:26:36.387Z,981.83
2019-01-30T02:27:36.400Z,981.78
2019-01-30T02:28:36.349Z,981.70
2019-01-30T02:29:36.321Z,981.73
2019-01-30T02:30:46.603Z,981.73
2019-01-30T02:31:36.319Z,981.68
2019-01-30T02:32:36.331Z,981.71
2019-01-30T02:33:36.281Z,981.71
2019-01-30T02:34:36.266Z,981.67
2019-01-30T02:35:36.265Z,981.64
2019-01-30T02:36:36.263Z,981.64
2019-01-30T02:37:36.278Z,981.64
2019-01-30T02:38:36.223Z,981.60
2019-01-30T02:39:36.250Z,981.59
2019-01-30T02:40:36.223Z,981.57
2019-01-30T02:41:36.268Z,981.56
2019-01-30T02:42:36.272Z,981.53
2019-01-30T02:43:36.251Z,981.49
2019-01-30T02:44:36.155Z,981.48
2019-01-30T02:45:36.261Z,981.48
2019-01-30T02:46:36.140Z,981.49
2019-01-30T02:47:36.229Z,981.46
2019-01-30T02:48:36.137Z,981.47
2019-01-30T02:49:36.110Z,981.42
2019-01-30T02:50:36.111Z,981.40
2019-01-30T02:51:36.091Z,981.35
2019-01-30T02:52:36.172Z,981.37
2019-01-30T02:53:36.082Z,981.33
2019-01-30T02:54:36.086Z,981.31
2019-01-30T02:55:36.057Z,981.31
2019-01-30T02:56:36.064Z,981.29
2019-01-30T02:57:36.054Z,981.35
2019-01-30T02:58:36.034Z,981.28
2019-01-30T02:59:36.006Z,981.29
2019-01-30T03:00:36.018Z,981.26
2019-01-30T03:01:36.081Z,981.27
2019-01-30T03:02:36.026Z,981.22
2019-01-30T03:03:35.972Z,981.22
2019-01-30T03:04:35.970Z,981.20
2019-01-30T03:05:35.953Z,981.21
2019-01-30T03:06:35.919Z,981.23
2019-01-30T03:07:36.049Z,981.22
2019-01-30T03:08:35.914Z,981.16
2019-01-30T03:09:35.915Z,981.20
2019-01-30T03:10:35.881Z,981.20
2019-01-30T03:11:35.869Z,981.17
2019-01-30T03:12:35.850Z,981.12
2019-01-30T03:13:36.009Z,981.16
2019-01-30T03:14:35.874Z,981.09
2019-01-30T03:15:35.844Z,981.11
2019-01-30T03:16:35.828Z,981.09
2019-01-30T03:17:35.881Z,981.06
2019-01-30T03:18:35.976Z,981.06
2019-01-30T03:19:35.819Z,981.05
2019-01-30T03:20:35.797Z,981.01
2019-01-30T03:21:35.789Z,981.04
2019-01-30T03:22:35.801Z,981.03
2019-01-30T03:23:35.832Z,981.01
2019-01-30T03:24:35.766Z,981.03
2019-01-30T03:25:35.747Z,980.94
2019-01-30T03:26:35.746Z,980.98
2019-01-30T03:27:35.742Z,980.95
2019-01-30T03:28:35.837Z,980.94
2019-01-30T03:29:35.710Z,980.98
2019-01-30T03:30:35.652Z,980.94
2019-01-30T03:31:35.663Z,980.99
2019-01-30T03:32:35.633Z,980.95
2019-01-30T03:33:35.655Z,980.99
2019-01-30T03:34:35.664Z,980.92
2019-01-30T03:35:35.645Z,980.97
2019-01-30T03:36:35.611Z,980.95
2019-01-30T03:37:35.587Z,980.93
2019-01-30T03:38:35.640Z,980.96
2019-01-30T03:39:35.566Z,980.93
2019-01-30T03:40:35.572Z,981.00
2019-01-30T03:41:35.543Z,980.95
2019-01-30T03:42:35.614Z,980.91
2019-01-30T03:43:35.568Z,980.95
2019-01-30T03:44:35.499Z,980.99
2019-01-30T03:45:35.500Z,980.94
2019-01-30T03:46:35.517Z,981.01
2019-01-30T03:47:35.500Z,980.95
2019-01-30T03:48:35.508Z,980.93
2019-01-30T03:49:35.447Z,980.95
2019-01-30T03:50:35.436Z,980.89
2019-01-30T03:51:35.447Z,980.89
2019-01-30T03:52:35.545Z,980.85
2019-01-30T03:53:35.435Z,980.83
2019-01-30T03:54:35.424Z,980.86
2019-01-30T03:55:35.383Z,980.84
2019-01-30T03:56:35.423Z,980.86
2019-01-30T03:57:35.362Z,980.85
2019-01-30T03:58:35.390Z,980.83
2019-01-30T03:59:35.406Z,980.85
2019-01-30T04:00:35.391Z,980.86
2019-01-30T04:01:35.339Z,980.81
2019-01-30T04:02:35.348Z,980.80
2019-01-30T04:03:35.336Z,980.79
2019-01-30T04:04:35.344Z,980.74
2019-01-30T04:05:35.326Z,980.82
2019-01-30T04:06:35.351Z,980.82
2019-01-30T04:07:35.325Z,980.77
2019-01-30T04:08:35.310Z,980.80
2019-01-30T04:09:35.333Z,980.81
2019-01-30T04:10:35.257Z,980.79
2019-01-30T04:11:35.230Z,980.77
2019-01-30T04:12:35.241Z,980.75
2019-01-30T04:13:35.237Z,980.79
2019-01-30T04:14:36.599Z,980.76
2019-01-30T04:15:35.512Z,980.74
2019-01-30T04:16:35.213Z,980.73
2019-01-30T04:17:35.224Z,980.76
2019-01-30T04:18:35.280Z,980.67
2019-01-30T04:19:35.156Z,980.72
2019-01-30T04:20:35.200Z,980.68
2019-01-30T04:21:35.188Z,980.67
2019-01-30T04:22:35.170Z,980.66
2019-01-30T04:23:35.257Z,980.66
2019-01-30T04:24:35.137Z,980.65
2019-01-30T04:25:35.166Z,980.62
2019-01-30T04:26:35.097Z,980.64
2019-01-30T04:27:35.072Z,980.65
2019-01-30T04:28:35.073Z,980.66
2019-01-30T04:29:35.143Z,980.64
2019-01-30T04:30:35.025Z,980.62
2019-01-30T04:31:38.325Z,980.62
2019-01-30T04:32:35.025Z,980.62
2019-01-30T04:33:35.025Z,980.59
2019-01-30T04:34:34.999Z,980.62
2019-01-30T04:35:34.978Z,980.59
2019-01-30T04:36:34.989Z,980.56
2019-01-30T04:37:34.959Z,980.58
2019-01-30T04:38:34.991Z,980.54
2019-01-30T04:39:34.920Z,980.54
2019-01-30T04:40:34.943Z,980.51
2019-01-30T04:41:34.924Z,980.48
2019-01-30T04:42:34.877Z,980.50
2019-01-30T04:43:35.017Z,980.51
2019-01-30T04:44:34.933Z,980.53
2019-01-30T04:45:34.881Z,980.55
2019-01-30T04:46:34.837Z,980.56
2019-01-30T04:47:34.847Z,980.53
2019-01-30T04:48:34.887Z,980.56
2019-01-30T04:49:34.862Z,980.52
2019-01-30T04:50:34.826Z,980.51
2019-01-30T04:51:34.810Z,980.49
2019-01-30T04:52:34.817Z,980.50
2019-01-30T04:53:35.127Z,980.57
2019-01-30T04:54:36.079Z,980.52
2019-01-30T04:55:34.731Z,980.54
2019-01-30T04:56:34.771Z,980.49
2019-01-30T04:57:34.711Z,980.48
2019-01-30T04:58:34.776Z,980.46
2019-01-30T04:59:34.759Z,980.49
2019-01-30T05:00:34.741Z,980.46
2019-01-30T05:01:34.969Z,980.47
2019-01-30T05:02:34.742Z,980.43
2019-01-30T05:03:34.676Z,980.43
2019-01-30T05:04:34.726Z,980.40
2019-01-30T05:05:34.701Z,980.41
2019-01-30T05:06:34.681Z,980.36
2019-01-30T05:07:34.643Z,980.36
2019-01-30T05:08:34.636Z,980.37
2019-01-30T05:09:34.677Z,980.40
2019-01-30T05:10:34.629Z,980.39
2019-01-30T05:11:34.618Z,980.39
2019-01-30T05:12:34.823Z,980.36
2019-01-30T05:13:34.533Z,980.41
2019-01-30T05:14:34.659Z,980.39
2019-01-30T05:15:34.578Z,980.40
2019-01-30T05:16:34.567Z,980.43
2019-01-30T05:17:34.595Z,980.42
2019-01-30T05:18:34.527Z,980.41
2019-01-30T05:19:34.638Z,980.43
2019-01-30T05:20:34.521Z,980.45
2019-01-30T05:21:34.504Z,980.44
2019-01-30T05:22:34.505Z,980.44
2019-01-30T05:23:34.500Z,980.44
2019-01-30T05:24:35.763Z,980.44
2019-01-30T05:25:34.495Z,980.41
2019-01-30T05:26:34.461Z,980.48
2019-01-30T05:27:34.457Z,980.52
2019-01-30T05:28:34.437Z,980.51
2019-01-30T05:29:34.457Z,980.51
2019-01-30T05:30:34.372Z,980.52
2019-01-30T05:31:34.335Z,980.50
2019-01-30T05:32:34.373Z,980.51
2019-01-30T05:33:34.329Z,980.52
2019-01-30T05:34:44.387Z,980.50
2019-01-30T05:35:34.375Z,980.51
2019-01-30T05:36:34.311Z,980.52
2019-01-30T05:37:34.313Z,980.54
2019-01-30T05:38:34.300Z,980.57
2019-01-30T05:39:34.308Z,980.53
2019-01-30T05:40:34.461Z,980.53
2019-01-30T05:41:34.242Z,980.49
2019-01-30T05:42:34.233Z,980.53
2019-01-30T05:43:34.202Z,980.52
2019-01-30T05:44:34.261Z,980.55
2019-01-30T05:45:34.241Z,980.54
2019-01-30T05:46:34.214Z,980.49
2019-01-30T05:47:34.186Z,980.46
2019-01-30T05:48:34.148Z,980.49
2019-01-30T05:49:34.195Z,980.46
2019-01-30T05:50:34.174Z,980.44
2019-01-30T05:51:34.151Z,980.43
2019-01-30T05:52:34.327Z,980.40
2019-01-30T05:53:34.136Z,980.40
2019-01-30T05:54:35.340Z,980.41
2019-01-30T05:55:34.084Z,980.39
2019-01-30T05:56:34.104Z,980.37
2019-01-30T05:57:34.053Z,980.38
2019-01-30T05:58:34.093Z,980.40
2019-01-30T05:59:34.078Z,980.36
2019-01-30T06:00:44.079Z,980.41
2019-01-30T06:01:34.004Z,980.34
2019-01-30T06:02:34.012Z,980.36
2019-01-30T06:03:34.006Z,980.32
2019-01-30T06:04:34.018Z,980.30
2019-01-30T06:05:33.975Z,980.29
2019-01-30T06:06:33.955Z,980.31
2019-01-30T06:07:35.097Z,980.28
2019-01-30T06:08:33.983Z,980.29
2019-01-30T06:09:33.963Z,980.24
2019-01-30T06:10:33.955Z,980.23
2019-01-30T06:11:33.910Z,980.25
2019-01-30T06:12:33.918Z,980.23
2019-01-30T06:13:33.882Z,980.18
2019-01-30T06:14:33.871Z,980.19
2019-01-30T06:15:33.875Z,980.15
2019-01-30T06:16:33.893Z,980.19
2019-01-30T06:17:33.883Z,980.19
2019-01-30T06:18:33.871Z,980.16
2019-01-30T06:19:33.849Z,980.21
2019-01-30T06:20:33.839Z,980.20
2019-01-30T06:21:33.822Z,980.22
2019-01-30T06:22:33.833Z,980.15
2019-01-30T06:23:33.829Z,980.18
2019-01-30T06:24:33.812Z,980.15
2019-01-30T06:25:33.796Z,980.14
2019-01-30T06:26:33.804Z,980.12
2019-01-30T06:27:33.750Z,980.15
2019-01-30T06:28:35.190Z,980.12
2019-01-30T06:29:43.739Z,980.16
2019-01-30T06:30:33.738Z,980.12
2019-01-30T06:31:33.684Z,980.10
2019-01-30T06:32:34.433Z,980.07
2019-01-30T06:33:33.700Z,980.09
2019-01-30T06:34:33.649Z,980.09
2019-01-30T06:35:33.681Z,980.09
2019-01-30T06:36:33.633Z,980.07
2019-01-30T06:37:33.619Z,980.03
2019-01-30T06:38:33.615Z,979.99
2019-01-30T06:39:33.599Z,980.01
2019-01-30T06:40:35.098Z,980.00
2019-01-30T06:41:33.573Z,980.06
2019-01-30T06:42:33.793Z,980.01
2019-01-30T06:43:33.574Z,979.98
2019-01-30T06:44:33.539Z,979.98
2019-01-30T06:45:33.553Z,979.98
2019-01-30T06:46:33.518Z,980.01
2019-01-30T06:47:33.711Z,980.03
2019-01-30T06:48:33.501Z,980.02
2019-01-30T06:49:33.518Z,980.02
2019-01-30T06:50:43.569Z,980.01
2019-01-30T06:51:33.493Z,979.99
2019-01-30T06:52:33.460Z,980.03
2019-01-30T06:53:33.433Z,980.07
2019-01-30T06:54:33.434Z,980.02
2019-01-30T06:55:33.468Z,980.02
2019-01-30T06:56:33.408Z,980.05
2019-01-30T06:57:33.407Z,980.04
2019-01-30T06:58:33.401Z,980.05
2019-01-30T06:59:33.385Z,980.04
2019-01-30T07:00:33.606Z,980.05
2019-01-30T07:01:33.376Z,980.09
2019-01-30T07:02:33.365Z,980.10
2019-01-30T07:03:33.368Z,980.11
2019-01-30T07:04:33.552Z,980.06
2019-01-30T07:05:33.365Z,980.12
2019-01-30T07:06:33.316Z,980.07
2019-01-30T07:07:33.307Z,980.06
2019-01-30T07:08:33.277Z,980.08
2019-01-30T07:09:33.268Z,980.06
2019-01-30T07:10:33.365Z,980.10
2019-01-30T07:11:33.250Z,980.10
2019-01-30T07:12:33.237Z,980.04
2019-01-30T07:13:33.252Z,980.06
2019-01-30T07:14:33.212Z,980.08
2019-01-30T07:15:33.262Z,980.07
2019-01-30T07:16:33.200Z,980.04
2019-01-30T07:17:33.228Z,980.10
2019-01-30T07:18:34.414Z,980.11
2019-01-30T07:19:33.186Z,980.08
2019-01-30T07:20:33.277Z,980.06
2019-01-30T07:21:33.175Z,980.05
2019-01-30T07:22:33.157Z,980.09
2019-01-30T07:23:33.162Z,980.07
2019-01-30T07:24:34.533Z,980.03
2019-01-30T07:25:43.264Z,980.05
2019-01-30T07:26:33.253Z,979.98
2019-01-30T07:27:33.097Z,980.04
2019-01-30T07:28:33.059Z,980.04
2019-01-30T07:29:33.051Z,979.99
2019-01-30T07:30:33.094Z,980.03
2019-01-30T07:31:33.040Z,979.97
2019-01-30T07:32:41.941Z,980.00
2019-01-30T07:33:33.010Z,979.94
2019-01-30T07:34:33.006Z,980.00
2019-01-30T07:35:33.028Z,979.93
2019-01-30T07:36:33.022Z,979.96
2019-01-30T07:37:32.968Z,979.98
2019-01-30T07:38:32.960Z,979.96
2019-01-30T07:39:32.973Z,979.97
2019-01-30T07:40:32.956Z,980.02
2019-01-30T07:41:32.999Z,979.98
2019-01-30T07:42:33.144Z,979.98
2019-01-30T07:43:34.892Z,980.01
2019-01-30T07:44:32.918Z,979.98
2019-01-30T07:45:32.969Z,980.00
2019-01-30T07:46:32.930Z,979.99
2019-01-30T07:47:32.882Z,979.99
2019-01-30T07:48:32.944Z,979.99
2019-01-30T07:49:32.941Z,979.99
2019-01-30T07:50:33.981Z,980.00
2019-01-30T07:51:32.963Z,980.00
2019-01-30T07:52:32.902Z,980.02
2019-01-30T07:53:32.838Z,980.08
2019-01-30T07:54:32.793Z,980.03
2019-01-30T07:55:32.927Z,980.00
2019-01-30T07:56:32.798Z,980.02
2019-01-30T07:57:32.851Z,979.98
2019-01-30T07:58:32.791Z,979.98
2019-01-30T07:59:32.795Z,979.99
2019-01-30T08:00:32.715Z,980.00
2019-01-30T08:01:33.894Z,979.95
2019-01-30T08:02:32.785Z,980.00
2019-01-30T08:03:32.703Z,979.97
2019-01-30T08:04:32.696Z,980.02
2019-01-30T08:05:32.726Z,979.97
2019-01-30T08:06:32.782Z,979.95
2019-01-30T08:07:32.674Z,979.99
2019-01-30T08:08:32.918Z,979.96
2019-01-30T08:09:32.626Z,979.95
2019-01-30T08:10:32.708Z,979.94
2019-01-30T08:11:33.200Z,979.97
2019-01-30T08:12:32.736Z,979.97
2019-01-30T08:13:32.581Z,979.92
2019-01-30T08:14:32.639Z,979.94
2019-01-30T08:15:32.576Z,979.95
2019-01-30T08:16:32.549Z,979.88
2019-01-30T08:17:32.672Z,979.93
2019-01-30T08:18:32.540Z,979.90
2019-01-30T08:19:32.630Z,979.90
2019-01-30T08:20:32.614Z,979.91
2019-01-30T08:21:32.712Z,979.89
2019-01-30T08:22:32.678Z,979.84
2019-01-30T08:23:32.647Z,979.86
2019-01-30T08:24:32.543Z,979.88
2019-01-30T08:25:32.764Z,979.90
2019-01-30T08:26:32.737Z,979.86
2019-01-30T08:27:34.073Z,979.90
2019-01-30T08:28:32.655Z,979.90
2019-01-30T08:29:32.506Z,979.92
2019-01-30T08:30:32.707Z,979.88
2019-01-30T08:31:32.649Z,979.86
2019-01-30T08:32:32.631Z,979.92
2019-01-30T08:33:32.386Z,979.94
2019-01-30T08:34:32.397Z,979.91
2019-01-30T08:35:32.349Z,979.97
2019-01-30T08:36:32.376Z,979.96
2019-01-30T08:37:32.355Z,979.96
2019-01-30T08:38:32.298Z,979.97
2019-01-30T08:39:32.295Z,979.94
2019-01-30T08:40:32.279Z,979.94
2019-01-30T08:41:32.262Z,980.02
2019-01-30T08:42:32.288Z,980.00
2019-01-30T08:43:32.242Z,979.97
2019-01-30T08:44:33.567Z,979.96
2019-01-30T08:45:32.444Z,980.00
2019-01-30T08:46:32.215Z,979.98
2019-01-30T08:47:32.242Z,979.96
2019-01-30T08:48:32.215Z,979.99
2019-01-30T08:49:32.180Z,979.99
2019-01-30T08:50:32.283Z,980.02
2019-01-30T08:51:32.160Z,980.02
2019-01-30T08:52:32.186Z,980.00
2019-01-30T08:53:32.143Z,980.00
2019-01-30T08:54:32.131Z,980.00
2019-01-30T08:55:32.112Z,980.01
2019-01-30T08:56:38.787Z,980.02
2019-01-30T08:57:32.508Z,979.96
2019-01-30T08:58:32.091Z,980.00
2019-01-30T08:59:32.076Z,980.01
2019-01-30T09:00:32.156Z,980.02
2019-01-30T09:01:32.070Z,980.05
2019-01-30T09:02:32.051Z,980.08
2019-01-30T09:03:32.096Z,980.06
2019-01-30T09:04:32.028Z,979.99
2019-01-30T09:05:32.001Z,980.02
2019-01-30T09:06:31.997Z,979.97
2019-01-30T09:07:32.000Z,979.97
2019-01-30T09:08:32.028Z,980.02
2019-01-30T09:09:31.961Z,980.01
2019-01-30T09:10:31.987Z,980.04
2019-01-30T09:11:31.953Z,980.01
2019-01-30T09:12:31.926Z,980.07
2019-01-30T09:13:31.983Z,980.05
2019-01-30T09:14:31.925Z,980.06
2019-01-30T09:15:31.898Z,980.08
2019-01-30T09:16:31.900Z,980.06
2019-01-30T09:17:31.942Z,980.04
2019-01-30T09:18:31.955Z,980.02
2019-01-30T09:19:31.893Z,980.04
2019-01-30T09:20:31.928Z,980.01
2019-01-30T09:21:31.862Z,980.03
2019-01-30T09:22:31.863Z,980.02
2019-01-30T09:23:31.925Z,979.99
2019-01-30T09:24:31.841Z,980.01
2019-01-30T09:25:31.835Z,979.98
2019-01-30T09:26:31.829Z,980.03
2019-01-30T09:27:31.806Z,980.03
2019-01-30T09:28:31.856Z,980.04
2019-01-30T09:29:31.799Z,980.07
2019-01-30T09:30:31.740Z,980.04
2019-01-30T09:31:31.802Z,980.08
2019-01-30T09:32:31.854Z,980.09
2019-01-30T09:33:31.733Z,980.04
2019-01-30T09:34:31.715Z,980.08
2019-01-30T09:35:31.685Z,980.09
2019-01-30T09:36:31.712Z,980.08
2019-01-30T09:37:31.719Z,980.11
2019-01-30T09:38:31.699Z,980.08
2019-01-30T09:39:31.636Z,980.09
2019-01-30T09:40:31.649Z,980.11
2019-01-30T09:41:31.646Z,980.10
2019-01-30T09:42:31.694Z,980.13
2019-01-30T09:43:31.763Z,980.09
2019-01-30T09:44:31.694Z,980.06
2019-01-30T09:45:31.662Z,980.09
2019-01-30T09:46:33.907Z,980.08
2019-01-30T09:47:31.619Z,980.06
2019-01-30T09:48:31.627Z,980.11
2019-01-30T09:49:31.525Z,980.09
2019-01-30T09:50:34.130Z,980.10
2019-01-30T09:51:31.779Z,980.11
2019-01-30T09:52:31.620Z,980.13
2019-01-30T09:53:32.026Z,980.14
2019-01-30T09:54:31.487Z,980.12
2019-01-30T09:55:31.760Z,980.16
2019-01-30T09:56:31.460Z,980.14
2019-01-30T09:57:31.456Z,980.15
2019-01-30T09:58:31.452Z,980.13
2019-01-30T09:59:31.456Z,980.14
2019-01-30T10:00:31.420Z,980.18
2019-01-30T10:01:31.428Z,980.15
2019-01-30T10:02:31.392Z,980.16
2019-01-30T10:03:36.473Z,980.11
2019-01-30T10:04:31.394Z,980.19
2019-01-30T10:05:31.389Z,980.12
2019-01-30T10:06:31.359Z,980.17
2019-01-30T10:07:31.371Z,980.16
2019-01-30T10:08:31.320Z,980.21
2019-01-30T10:09:31.337Z,980.19
2019-01-30T10:10:31.316Z,980.19
2019-01-30T10:11:31.312Z,980.19
2019-01-30T10:12:31.276Z,980.22
2019-01-30T10:13:31.258Z,980.24
2019-01-30T10:14:31.317Z,980.23
2019-01-30T10:15:31.254Z,980.23
2019-01-30T10:16:31.226Z,980.23
2019-01-30T10:17:31.573Z,980.25
2019-01-30T10:18:31.287Z,980.25
2019-01-30T10:19:31.327Z,980.26
2019-01-30T10:20:32.523Z,980.30
2019-01-30T10:21:31.247Z,980.27
2019-01-30T10:22:31.220Z,980.30
2019-01-30T10:23:31.223Z,980.29
2019-01-30T10:24:31.206Z,980.30
2019-01-30T10:25:31.195Z,980.35
2019-01-30T10:26:31.171Z,980.30
2019-01-30T10:27:31.180Z,980.33
2019-01-30T10:28:31.172Z,980.31
2019-01-30T10:29:31.131Z,980.31
2019-01-30T10:30:31.167Z,980.27
2019-01-30T10:31:31.217Z,980.30
2019-01-30T10:32:31.131Z,980.27
2019-01-30T10:33:31.083Z,980.28
2019-01-30T10:34:31.105Z,980.28
2019-01-30T10:35:31.078Z,980.23
2019-01-30T10:36:31.065Z,980.30
2019-01-30T10:37:31.067Z,980.25
2019-01-30T10:38:31.088Z,980.30
2019-01-30T10:39:31.012Z,980.33
2019-01-30T10:40:31.004Z,980.32
2019-01-30T10:41:30.970Z,980.30
2019-01-30T10:42:31.007Z,980.27
2019-01-30T10:43:30.948Z,980.26
2019-01-30T10:44:30.952Z,980.25
2019-01-30T10:45:30.981Z,980.22
2019-01-30T10:46:30.910Z,980.21
2019-01-30T10:47:30.897Z,980.20
2019-01-30T10:48:30.889Z,980.19
2019-01-30T10:49:30.949Z,980.18
2019-01-30T10:50:30.968Z,980.15
2019-01-30T10:51:30.882Z,980.17
2019-01-30T10:52:30.853Z,980.17
2019-01-30T10:53:30.848Z,980.16
2019-01-30T10:54:30.811Z,980.17
2019-01-30T10:55:30.915Z,980.17
2019-01-30T10:56:30.806Z,980.17
2019-01-30T10:57:30.842Z,980.20
2019-01-30T10:58:30.783Z,980.18
2019-01-30T10:59:30.776Z,980.13
2019-01-30T11:00:30.796Z,980.13
2019-01-30T11:01:31.225Z,980.17
2019-01-30T11:02:30.774Z,980.17
2019-01-30T11:03:30.806Z,980.16
2019-01-30T11:04:30.717Z,980.18
2019-01-30T11:05:30.836Z,980.17
2019-01-30T11:06:30.762Z,980.19
2019-01-30T11:07:30.899Z,980.26
2019-01-30T11:08:30.737Z,980.26
2019-01-30T11:09:30.790Z,980.28
2019-01-30T11:10:30.715Z,980.28
2019-01-30T11:11:31.115Z,980.25
2019-01-30T11:12:30.696Z,980.28
2019-01-30T11:13:30.750Z,980.29
2019-01-30T11:14:30.670Z,980.28
2019-01-30T11:15:30.757Z,980.29
2019-01-30T11:16:30.731Z,980.29
2019-01-30T11:17:30.777Z,980.29
2019-01-30T11:18:30.725Z,980.30
2019-01-30T11:19:30.690Z,980.32
2019-01-30T11:20:30.804Z,980.27
2019-01-30T11:21:30.733Z,980.31
2019-01-30T11:22:31.673Z,980.32
2019-01-30T11:23:31.685Z,980.30
2019-01-30T11:24:33.632Z,980.26
2019-01-30T11:25:30.694Z,980.31
2019-01-30T11:26:30.644Z,980.30
2019-01-30T11:27:51.675Z,980.34
2019-01-30T11:28:30.595Z,980.32
2019-01-30T11:29:30.571Z,980.31
2019-01-30T11:30:30.819Z,980.31
2019-01-30T11:31:33.578Z,980.31
2019-01-30T11:32:30.614Z,980.31
2019-01-30T11:33:31.536Z,980.33
2019-01-30T11:34:31.540Z,980.31
2019-01-30T11:35:30.580Z,980.30
2019-01-30T11:36:39.865Z,980.31
2019-01-30T11:37:30.501Z,980.31
2019-01-30T11:38:30.496Z,980.30
2019-01-30T11:39:30.461Z,980.26
2019-01-30T11:40:33.498Z,980.30
2019-01-30T11:41:30.458Z,980.28
2019-01-30T11:42:31.443Z,980.26
2019-01-30T11:43:31.421Z,980.22
2019-01-30T11:44:30.399Z,980.28
2019-01-30T11:45:31.021Z,980.23
2019-01-30T11:46:30.379Z,980.24
2019-01-30T11:47:30.373Z,980.26
2019-01-30T11:48:30.412Z,980.26
2019-01-30T11:49:30.417Z,980.27
2019-01-30T11:50:30.394Z,980.31
2019-01-30T11:51:30.334Z,980.29
2019-01-30T11:52:33.299Z,980.32
2019-01-30T11:53:30.305Z,980.33
2019-01-30T11:54:38.677Z,980.33
2019-01-30T11:55:30.325Z,980.33
2019-01-30T11:56:30.289Z,980.32
2019-01-30T11:57:30.246Z,980.33
2019-01-30T11:58:30.226Z,980.36
2019-01-30T11:59:30.540Z,980.32
2019-01-30T12:00:30.424Z,980.35
2019-01-30T12:01:33.438Z,980.36
2019-01-30T12:02:30.312Z,980.37
2019-01-30T12:03:30.342Z,980.35
2019-01-30T12:04:30.306Z,980.32
2019-01-30T12:05:33.233Z,980.37
2019-01-30T12:06:30.430Z,980.37
2019-01-30T12:07:31.914Z,980.40
2019-01-30T12:08:30.436Z,980.40
2019-01-30T12:09:30.271Z,980.36
2019-01-30T12:10:30.311Z,980.34
2019-01-30T12:11:30.349Z,980.36
2019-01-30T12:12:30.234Z,980.36
2019-01-30T12:13:30.336Z,980.32
2019-01-30T12:14:30.627Z,980.35
2019-01-30T12:15:31.870Z,980.37
2019-01-30T12:16:30.353Z,980.39
2019-01-30T12:17:30.164Z,980.37
2019-01-30T12:18:30.223Z,980.37
2019-01-30T12:19:30.207Z,980.39
2019-01-30T12:20:30.238Z,980.38
2019-01-30T12:21:30.323Z,980.37
2019-01-30T12:22:30.299Z,980.38
2019-01-30T12:23:30.183Z,980.38
2019-01-30T12:24:31.142Z,980.36
2019-01-30T12:25:30.274Z,980.40
2019-01-30T12:26:30.036Z,980.39
2019-01-30T12:27:29.968Z,980.37
2019-01-30T12:28:31.972Z,980.37